Aviation Digital Data Service (ADDS)

Output produced by METARs form (1200 UTC 24 February 2018)
found at http://www.aviationweather.gov/adds/metars/
 
TAF TQPF 241113Z 2412/2512 07012KT 9999 SCT020 
     PROB30 
     TEMPO 2502/2512 SHRA